IE-0021 weather

Eniskeane Airfield
Eniskeane, Ireland

Public forecast

Using degrees Celsius for public forecast. Weather courtesy of forecast.io.

Closest aviation weather report (METAR) to Eniskeane Airfield

Closest report is Cork Airport, 15.2 nm (28.1 km) ENE. Retrieved 2019/12/16 10:30 UTC (0 seconds ago):

EICK 161030Z 30005KT 9999 FEW018CB 03/01 Q0997 NOSIG

Closest aviation forecast (TAF) to Eniskeane Airfield

Closest forecast is Cork Airport, 15.2 nm (28.1 km) ENE. Retrieved 2019/12/16 06:09 UTC (4 hours ago):

TAF TAF EICK 160500Z 1606/1706 24006KT 9999 FEW015 SCT035 BECMG 1606/1609 28005KT PROB40 TEMPO 1606/1611 -SHRA FEW018CB BECMG 1609/1612 VRB03KT BECMG 1616/1618 27005KT PROB30 TEMPO 1700/1706 3000 BR